sensor_id;sensor_type;location;lat;lon;timestamp;P1;durP1;ratioP1;P2;durP2;ratioP2
23300;SDS011;11819;51.394;12.340;2023-06-10T00:00:19;12.45;;;8.32;;
23300;SDS011;11819;51.394;12.340;2023-06-10T00:02:45;11.18;;;8.55;;
23300;SDS011;11819;51.394;12.340;2023-06-10T00:05:11;12.55;;;8.63;;
23300;SDS011;11819;51.394;12.340;2023-06-10T00:07:36;12.18;;;8.20;;
23300;SDS011;11819;51.394;12.340;2023-06-10T00:10:03;12.75;;;7.70;;
23300;SDS011;11819;51.394;12.340;2023-06-10T00:12:33;13.13;;;8.93;;
23300;SDS011;11819;51.394;12.340;2023-06-10T00:15:06;12.38;;;8.20;;
23300;SDS011;11819;51.394;12.340;2023-06-10T00:17:32;12.50;;;8.57;;
23300;SDS011;11819;51.394;12.340;2023-06-10T00:19:58;12.25;;;8.10;;
23300;SDS011;11819;51.394;12.340;2023-06-10T00:22:24;12.13;;;8.13;;
23300;SDS011;11819;51.394;12.340;2023-06-10T00:24:54;11.65;;;8.38;;
23300;SDS011;11819;51.394;12.340;2023-06-10T00:27:21;12.52;;;7.97;;
23300;SDS011;11819;51.394;12.340;2023-06-10T00:29:47;12.10;;;8.45;;
23300;SDS011;11819;51.394;12.340;2023-06-10T00:32:13;12.10;;;8.05;;
23300;SDS011;11819;51.394;12.340;2023-06-10T00:34:38;11.75;;;8.75;;
23300;SDS011;11819;51.394;12.340;2023-06-10T00:37:04;11.27;;;8.40;;
23300;SDS011;11819;51.394;12.340;2023-06-10T00:39:30;9.90;;;8.48;;
23300;SDS011;11819;51.394;12.340;2023-06-10T00:41:55;11.60;;;9.20;;
23300;SDS011;11819;51.394;12.340;2023-06-10T00:44:21;13.40;;;9.25;;
23300;SDS011;11819;51.394;12.340;2023-06-10T00:46:47;13.55;;;9.55;;
23300;SDS011;11819;51.394;12.340;2023-06-10T00:49:14;13.93;;;10.32;;
23300;SDS011;11819;51.394;12.340;2023-06-10T00:51:41;12.70;;;10.15;;
23300;SDS011;11819;51.394;12.340;2023-06-10T00:54:07;13.50;;;10.63;;
23300;SDS011;11819;51.394;12.340;2023-06-10T00:56:34;14.85;;;11.35;;
23300;SDS011;11819;51.394;12.340;2023-06-10T00:59:01;15.65;;;12.85;;
23300;SDS011;11819;51.394;12.340;2023-06-10T01:01:27;14.95;;;12.88;;
23300;SDS011;11819;51.394;12.340;2023-06-10T01:03:54;20.48;;;14.23;;
23300;SDS011;11819;51.394;12.340;2023-06-10T01:09:19;16.27;;;13.50;;
23300;SDS011;11819;51.394;12.340;2023-06-10T01:12:02;17.85;;;13.93;;
23300;SDS011;11819;51.394;12.340;2023-06-10T01:14:38;17.98;;;13.82;;
23300;SDS011;11819;51.394;12.340;2023-06-10T01:17:10;18.23;;;14.15;;
23300;SDS011;11819;51.394;12.340;2023-06-10T01:19:36;18.58;;;13.75;;
23300;SDS011;11819;51.394;12.340;2023-06-10T01:22:02;18.95;;;13.27;;
23300;SDS011;11819;51.394;12.340;2023-06-10T01:24:28;15.80;;;11.73;;
23300;SDS011;11819;51.394;12.340;2023-06-10T01:26:59;16.75;;;12.02;;
23300;SDS011;11819;51.394;12.340;2023-06-10T01:29:33;13.98;;;11.27;;
23300;SDS011;11819;51.394;12.340;2023-06-10T01:32:15;13.68;;;11.70;;
23300;SDS011;11819;51.394;12.340;2023-06-10T01:34:46;13.65;;;10.77;;
23300;SDS011;11819;51.394;12.340;2023-06-10T01:37:14;11.57;;;10.35;;
23300;SDS011;11819;51.394;12.340;2023-06-10T01:39:43;14.80;;;11.15;;
23300;SDS011;11819;51.394;12.340;2023-06-10T01:42:11;14.48;;;10.82;;
23300;SDS011;11819;51.394;12.340;2023-06-10T01:44:38;15.60;;;10.40;;
23300;SDS011;11819;51.394;12.340;2023-06-10T01:47:07;11.82;;;10.38;;
23300;SDS011;11819;51.394;12.340;2023-06-10T01:49:33;12.98;;;10.30;;
23300;SDS011;11819;51.394;12.340;2023-06-10T01:51:59;14.63;;;10.60;;
23300;SDS011;11819;51.394;12.340;2023-06-10T01:54:25;11.95;;;10.50;;
23300;SDS011;11819;51.394;12.340;2023-06-10T01:56:51;17.20;;;11.10;;
23300;SDS011;11819;51.394;12.340;2023-06-10T01:59:16;13.57;;;10.73;;
23300;SDS011;11819;51.394;12.340;2023-06-10T02:01:42;13.27;;;10.32;;
23300;SDS011;11819;51.394;12.340;2023-06-10T02:04:09;14.38;;;11.25;;
23300;SDS011;11819;51.394;12.340;2023-06-10T02:06:35;13.75;;;10.35;;
23300;SDS011;11819;51.394;12.340;2023-06-10T02:09:02;15.23;;;11.25;;
23300;SDS011;11819;51.394;12.340;2023-06-10T02:11:28;12.00;;;10.15;;
23300;SDS011;11819;51.394;12.340;2023-06-10T02:13:54;14.27;;;11.32;;
23300;SDS011;11819;51.394;12.340;2023-06-10T02:16:20;15.80;;;11.00;;
23300;SDS011;11819;51.394;12.340;2023-06-10T02:18:46;16.95;;;11.13;;
23300;SDS011;11819;51.394;12.340;2023-06-10T02:21:13;12.77;;;10.65;;
23300;SDS011;11819;51.394;12.340;2023-06-10T02:23:39;13.48;;;10.63;;
23300;SDS011;11819;51.394;12.340;2023-06-10T02:26:05;13.10;;;10.20;;
23300;SDS011;11819;51.394;12.340;2023-06-10T02:28:31;13.20;;;10.00;;
23300;SDS011;11819;51.394;12.340;2023-06-10T02:30:57;14.52;;;11.13;;
23300;SDS011;11819;51.394;12.340;2023-06-10T02:33:24;13.48;;;10.43;;
23300;SDS011;11819;51.394;12.340;2023-06-10T02:35:50;16.27;;;9.93;;
23300;SDS011;11819;51.394;12.340;2023-06-10T02:38:16;14.70;;;10.70;;
23300;SDS011;11819;51.394;12.340;2023-06-10T02:40:42;13.75;;;10.05;;
23300;SDS011;11819;51.394;12.340;2023-06-10T02:43:09;13.32;;;10.30;;
23300;SDS011;11819;51.394;12.340;2023-06-10T02:45:35;13.00;;;10.25;;
23300;SDS011;11819;51.394;12.340;2023-06-10T02:48:02;14.73;;;10.20;;
23300;SDS011;11819;51.394;12.340;2023-06-10T02:50:28;12.88;;;10.20;;
23300;SDS011;11819;51.394;12.340;2023-06-10T02:53:05;13.43;;;10.18;;
23300;SDS011;11819;51.394;12.340;2023-06-10T02:55:33;13.43;;;10.50;;
23300;SDS011;11819;51.394;12.340;2023-06-10T02:58:03;11.23;;;9.73;;
23300;SDS011;11819;51.394;12.340;2023-06-10T03:00:29;13.65;;;11.05;;
23300;SDS011;11819;51.394;12.340;2023-06-10T03:02:56;13.05;;;10.07;;
23300;SDS011;11819;51.394;12.340;2023-06-10T03:05:25;12.05;;;10.02;;
23300;SDS011;11819;51.394;12.340;2023-06-10T03:07:52;18.60;;;11.25;;
23300;SDS011;11819;51.394;12.340;2023-06-10T03:10:19;15.48;;;10.27;;
23300;SDS011;11819;51.394;12.340;2023-06-10T03:12:44;13.52;;;10.65;;
23300;SDS011;11819;51.394;12.340;2023-06-10T03:15:10;13.70;;;10.93;;
23300;SDS011;11819;51.394;12.340;2023-06-10T03:17:36;14.30;;;10.40;;
23300;SDS011;11819;51.394;12.340;2023-06-10T03:20:02;13.82;;;11.02;;
23300;SDS011;11819;51.394;12.340;2023-06-10T03:22:31;15.50;;;10.95;;
23300;SDS011;11819;51.394;12.340;2023-06-10T03:25:02;11.93;;;10.20;;
23300;SDS011;11819;51.394;12.340;2023-06-10T03:27:28;13.68;;;10.90;;
23300;SDS011;11819;51.394;12.340;2023-06-10T03:29:57;14.13;;;10.60;;
23300;SDS011;11819;51.394;12.340;2023-06-10T03:32:23;13.23;;;10.75;;
23300;SDS011;11819;51.394;12.340;2023-06-10T03:34:49;14.77;;;10.00;;
23300;SDS011;11819;51.394;12.340;2023-06-10T03:37:17;13.07;;;10.52;;
23300;SDS011;11819;51.394;12.340;2023-06-10T03:39:45;15.15;;;11.00;;
23300;SDS011;11819;51.394;12.340;2023-06-10T03:42:11;14.85;;;11.63;;
23300;SDS011;11819;51.394;12.340;2023-06-10T03:44:37;17.15;;;11.20;;
23300;SDS011;11819;51.394;12.340;2023-06-10T03:47:03;13.98;;;10.95;;
23300;SDS011;11819;51.394;12.340;2023-06-10T03:49:29;18.88;;;11.57;;
23300;SDS011;11819;51.394;12.340;2023-06-10T03:51:58;16.50;;;11.40;;
23300;SDS011;11819;51.394;12.340;2023-06-10T03:54:24;16.02;;;11.07;;
23300;SDS011;11819;51.394;12.340;2023-06-10T03:56:50;14.48;;;11.68;;
23300;SDS011;11819;51.394;12.340;2023-06-10T03:59:16;13.63;;;10.82;;
23300;SDS011;11819;51.394;12.340;2023-06-10T04:01:41;14.45;;;12.05;;
23300;SDS011;11819;51.394;12.340;2023-06-10T04:04:08;14.85;;;11.30;;
23300;SDS011;11819;51.394;12.340;2023-06-10T04:06:35;14.10;;;11.50;;
23300;SDS011;11819;51.394;12.340;2023-06-10T04:09:02;14.38;;;11.45;;
23300;SDS011;11819;51.394;12.340;2023-06-10T04:11:28;18.38;;;12.10;;
23300;SDS011;11819;51.394;12.340;2023-06-10T04:13:56;18.88;;;12.18;;
23300;SDS011;11819;51.394;12.340;2023-06-10T04:16:23;14.70;;;12.23;;
23300;SDS011;11819;51.394;12.340;2023-06-10T04:18:49;17.40;;;12.05;;
23300;SDS011;11819;51.394;12.340;2023-06-10T04:21:16;14.07;;;11.30;;
23300;SDS011;11819;51.394;12.340;2023-06-10T04:23:41;13.38;;;11.73;;
23300;SDS011;11819;51.394;12.340;2023-06-10T04:26:08;14.95;;;12.32;;
23300;SDS011;11819;51.394;12.340;2023-06-10T04:28:36;15.57;;;12.13;;
23300;SDS011;11819;51.394;12.340;2023-06-10T04:31:01;14.57;;;12.25;;
23300;SDS011;11819;51.394;12.340;2023-06-10T04:33:30;13.73;;;11.90;;
23300;SDS011;11819;51.394;12.340;2023-06-10T04:35:56;14.63;;;12.10;;
23300;SDS011;11819;51.394;12.340;2023-06-10T04:38:24;16.70;;;11.88;;
23300;SDS011;11819;51.394;12.340;2023-06-10T04:40:50;15.57;;;12.07;;
23300;SDS011;11819;51.394;12.340;2023-06-10T04:43:17;20.20;;;11.63;;
23300;SDS011;11819;51.394;12.340;2023-06-10T04:45:45;13.98;;;12.15;;
23300;SDS011;11819;51.394;12.340;2023-06-10T04:48:10;16.55;;;12.32;;
23300;SDS011;11819;51.394;12.340;2023-06-10T04:50:37;14.43;;;12.30;;
23300;SDS011;11819;51.394;12.340;2023-06-10T04:53:03;17.55;;;13.27;;
23300;SDS011;11819;51.394;12.340;2023-06-10T04:55:29;16.95;;;12.35;;
23300;SDS011;11819;51.394;12.340;2023-06-10T04:57:54;18.40;;;12.85;;
23300;SDS011;11819;51.394;12.340;2023-06-10T05:00:20;14.63;;;12.60;;
23300;SDS011;11819;51.394;12.340;2023-06-10T05:02:46;16.15;;;14.10;;
23300;SDS011;11819;51.394;12.340;2023-06-10T05:05:15;18.23;;;13.20;;
23300;SDS011;11819;51.394;12.340;2023-06-10T05:07:41;16.95;;;13.48;;
23300;SDS011;11819;51.394;12.340;2023-06-10T05:10:07;18.13;;;14.20;;
23300;SDS011;11819;51.394;12.340;2023-06-10T05:12:33;17.88;;;13.02;;
23300;SDS011;11819;51.394;12.340;2023-06-10T05:14:59;20.02;;;13.48;;
23300;SDS011;11819;51.394;12.340;2023-06-10T05:17:24;17.15;;;13.88;;
23300;SDS011;11819;51.394;12.340;2023-06-10T05:19:50;16.38;;;13.75;;
23300;SDS011;11819;51.394;12.340;2023-06-10T05:22:16;17.30;;;13.40;;
23300;SDS011;11819;51.394;12.340;2023-06-10T05:24:43;15.48;;;13.30;;
23300;SDS011;11819;51.394;12.340;2023-06-10T05:27:09;18.75;;;14.40;;
23300;SDS011;11819;51.394;12.340;2023-06-10T05:29:35;20.63;;;13.45;;
23300;SDS011;11819;51.394;12.340;2023-06-10T05:32:01;16.83;;;13.85;;
23300;SDS011;11819;51.394;12.340;2023-06-10T05:34:30;17.60;;;13.80;;
23300;SDS011;11819;51.394;12.340;2023-06-10T05:36:56;16.17;;;14.23;;
23300;SDS011;11819;51.394;12.340;2023-06-10T05:39:22;16.98;;;14.15;;
23300;SDS011;11819;51.394;12.340;2023-06-10T05:41:48;19.15;;;14.05;;
23300;SDS011;11819;51.394;12.340;2023-06-10T05:44:13;16.63;;;14.35;;
23300;SDS011;11819;51.394;12.340;2023-06-10T05:46:39;19.02;;;14.43;;
23300;SDS011;11819;51.394;12.340;2023-06-10T05:49:04;16.00;;;14.13;;
23300;SDS011;11819;51.394;12.340;2023-06-10T05:51:30;16.85;;;14.32;;
23300;SDS011;11819;51.394;12.340;2023-06-10T05:53:55;17.33;;;14.05;;
23300;SDS011;11819;51.394;12.340;2023-06-10T05:56:21;17.77;;;13.98;;
23300;SDS011;11819;51.394;12.340;2023-06-10T05:58:47;16.42;;;14.20;;
23300;SDS011;11819;51.394;12.340;2023-06-10T06:01:14;17.33;;;13.93;;
23300;SDS011;11819;51.394;12.340;2023-06-10T06:03:40;18.13;;;14.32;;
23300;SDS011;11819;51.394;12.340;2023-06-10T06:06:06;17.80;;;14.07;;
23300;SDS011;11819;51.394;12.340;2023-06-10T06:08:32;16.73;;;14.55;;
23300;SDS011;11819;51.394;12.340;2023-06-10T06:10:57;16.50;;;13.48;;
23300;SDS011;11819;51.394;12.340;2023-06-10T06:13:24;16.58;;;14.18;;
23300;SDS011;11819;51.394;12.340;2023-06-10T06:15:49;17.23;;;14.02;;
23300;SDS011;11819;51.394;12.340;2023-06-10T06:18:15;20.60;;;14.20;;
23300;SDS011;11819;51.394;12.340;2023-06-10T06:20:41;18.52;;;14.68;;
23300;SDS011;11819;51.394;12.340;2023-06-10T06:23:07;18.35;;;14.85;;
23300;SDS011;11819;51.394;12.340;2023-06-10T06:25:35;18.90;;;14.55;;
23300;SDS011;11819;51.394;12.340;2023-06-10T06:28:01;18.13;;;15.20;;
23300;SDS011;11819;51.394;12.340;2023-06-10T06:30:27;19.08;;;14.40;;
23300;SDS011;11819;51.394;12.340;2023-06-10T06:32:53;18.85;;;14.45;;
23300;SDS011;11819;51.394;12.340;2023-06-10T06:35:18;16.80;;;13.88;;
23300;SDS011;11819;51.394;12.340;2023-06-10T06:37:44;19.85;;;15.18;;
23300;SDS011;11819;51.394;12.340;2023-06-10T06:40:16;16.52;;;14.48;;
23300;SDS011;11819;51.394;12.340;2023-06-10T06:42:42;20.38;;;15.98;;
23300;SDS011;11819;51.394;12.340;2023-06-10T06:45:20;19.73;;;14.82;;
23300;SDS011;11819;51.394;12.340;2023-06-10T06:47:46;18.35;;;13.95;;
23300;SDS011;11819;51.394;12.340;2023-06-10T06:50:11;18.60;;;14.88;;
23300;SDS011;11819;51.394;12.340;2023-06-10T06:52:37;16.73;;;14.82;;
23300;SDS011;11819;51.394;12.340;2023-06-10T06:55:03;24.20;;;15.70;;
23300;SDS011;11819;51.394;12.340;2023-06-10T06:57:28;17.10;;;15.35;;
23300;SDS011;11819;51.394;12.340;2023-06-10T06:59:54;31.85;;;16.42;;
23300;SDS011;11819;51.394;12.340;2023-06-10T07:02:19;21.13;;;16.40;;
23300;SDS011;11819;51.394;12.340;2023-06-10T07:04:45;210.57;;;34.95;;
23300;SDS011;11819;51.394;12.340;2023-06-10T07:07:13;38.08;;;17.38;;
23300;SDS011;11819;51.394;12.340;2023-06-10T07:09:39;24.25;;;17.02;;
23300;SDS011;11819;51.394;12.340;2023-06-10T07:12:05;37.58;;;16.85;;
23300;SDS011;11819;51.394;12.340;2023-06-10T07:14:31;17.73;;;15.07;;
23300;SDS011;11819;51.394;12.340;2023-06-10T07:16:57;23.55;;;15.05;;
23300;SDS011;11819;51.394;12.340;2023-06-10T07:19:22;21.80;;;16.33;;
23300;SDS011;11819;51.394;12.340;2023-06-10T07:21:48;25.33;;;16.02;;
23300;SDS011;11819;51.394;12.340;2023-06-10T07:24:13;22.40;;;16.48;;
23300;SDS011;11819;51.394;12.340;2023-06-10T07:26:39;20.13;;;16.48;;
23300;SDS011;11819;51.394;12.340;2023-06-10T07:29:05;26.67;;;17.13;;
23300;SDS011;11819;51.394;12.340;2023-06-10T07:31:30;26.85;;;17.92;;
23300;SDS011;11819;51.394;12.340;2023-06-10T07:33:56;20.50;;;17.45;;
23300;SDS011;11819;51.394;12.340;2023-06-10T07:36:21;23.67;;;17.55;;
23300;SDS011;11819;51.394;12.340;2023-06-10T07:38:47;21.10;;;17.60;;
23300;SDS011;11819;51.394;12.340;2023-06-10T07:41:13;23.35;;;17.08;;
23300;SDS011;11819;51.394;12.340;2023-06-10T07:43:39;22.25;;;16.25;;
23300;SDS011;11819;51.394;12.340;2023-06-10T07:46:05;55.92;;;19.17;;
23300;SDS011;11819;51.394;12.340;2023-06-10T07:48:31;20.52;;;17.30;;
23300;SDS011;11819;51.394;12.340;2023-06-10T07:50:56;19.73;;;17.00;;
23300;SDS011;11819;51.394;12.340;2023-06-10T07:53:22;23.55;;;17.70;;
23300;SDS011;11819;51.394;12.340;2023-06-10T07:55:48;23.08;;;16.65;;
23300;SDS011;11819;51.394;12.340;2023-06-10T07:58:13;20.27;;;17.80;;
23300;SDS011;11819;51.394;12.340;2023-06-10T08:00:39;19.77;;;17.63;;
23300;SDS011;11819;51.394;12.340;2023-06-10T08:03:05;19.17;;;17.10;;
23300;SDS011;11819;51.394;12.340;2023-06-10T08:05:30;19.30;;;17.10;;
23300;SDS011;11819;51.394;12.340;2023-06-10T08:07:56;19.80;;;17.23;;
23300;SDS011;11819;51.394;12.340;2023-06-10T08:10:22;21.52;;;18.05;;
23300;SDS011;11819;51.394;12.340;2023-06-10T08:12:47;20.38;;;17.42;;
23300;SDS011;11819;51.394;12.340;2023-06-10T08:15:13;19.58;;;16.55;;
23300;SDS011;11819;51.394;12.340;2023-06-10T08:17:39;19.00;;;16.73;;
23300;SDS011;11819;51.394;12.340;2023-06-10T08:20:05;18.30;;;16.40;;
23300;SDS011;11819;51.394;12.340;2023-06-10T08:22:31;19.30;;;17.30;;
23300;SDS011;11819;51.394;12.340;2023-06-10T08:24:57;19.48;;;17.35;;
23300;SDS011;11819;51.394;12.340;2023-06-10T08:27:22;20.88;;;16.83;;
23300;SDS011;11819;51.394;12.340;2023-06-10T08:29:48;20.05;;;17.17;;
23300;SDS011;11819;51.394;12.340;2023-06-10T08:32:14;18.55;;;16.70;;
23300;SDS011;11819;51.394;12.340;2023-06-10T08:34:39;21.58;;;17.52;;
23300;SDS011;11819;51.394;12.340;2023-06-10T08:37:05;18.70;;;16.80;;
23300;SDS011;11819;51.394;12.340;2023-06-10T08:39:31;19.70;;;17.30;;
23300;SDS011;11819;51.394;12.340;2023-06-10T08:42:04;19.85;;;17.38;;
23300;SDS011;11819;51.394;12.340;2023-06-10T08:44:31;18.92;;;16.83;;
23300;SDS011;11819;51.394;12.340;2023-06-10T08:47:01;19.65;;;17.50;;
23300;SDS011;11819;51.394;12.340;2023-06-10T08:49:41;18.85;;;15.98;;
23300;SDS011;11819;51.394;12.340;2023-06-10T08:52:09;21.25;;;16.92;;
23300;SDS011;11819;51.394;12.340;2023-06-10T08:55:44;18.02;;;16.13;;
23300;SDS011;11819;51.394;12.340;2023-06-10T08:57:41;20.20;;;17.15;;
23300;SDS011;11819;51.394;12.340;2023-06-10T09:00:08;17.77;;;15.88;;
23300;SDS011;11819;51.394;12.340;2023-06-10T09:02:36;20.63;;;16.15;;
23300;SDS011;11819;51.394;12.340;2023-06-10T09:05:03;18.42;;;16.08;;
23300;SDS011;11819;51.394;12.340;2023-06-10T09:07:30;19.92;;;16.42;;
23300;SDS011;11819;51.394;12.340;2023-06-10T09:10:04;18.25;;;16.42;;
23300;SDS011;11819;51.394;12.340;2023-06-10T09:12:35;17.77;;;15.82;;
23300;SDS011;11819;51.394;12.340;2023-06-10T09:15:03;18.25;;;16.15;;
23300;SDS011;11819;51.394;12.340;2023-06-10T09:17:30;17.70;;;15.77;;
23300;SDS011;11819;51.394;12.340;2023-06-10T09:19:56;17.23;;;15.43;;
23300;SDS011;11819;51.394;12.340;2023-06-10T09:22:23;17.90;;;16.00;;
23300;SDS011;11819;51.394;12.340;2023-06-10T09:24:52;17.15;;;15.43;;
23300;SDS011;11819;51.394;12.340;2023-06-10T09:27:30;17.25;;;15.35;;
23300;SDS011;11819;51.394;12.340;2023-06-10T09:29:57;17.38;;;15.57;;
23300;SDS011;11819;51.394;12.340;2023-06-10T09:32:24;17.90;;;16.00;;
23300;SDS011;11819;51.394;12.340;2023-06-10T09:34:50;17.77;;;15.48;;
23300;SDS011;11819;51.394;12.340;2023-06-10T09:37:20;18.17;;;16.38;;
23300;SDS011;11819;51.394;12.340;2023-06-10T09:40:04;19.70;;;16.23;;
23300;SDS011;11819;51.394;12.340;2023-06-10T09:42:35;16.90;;;15.15;;
23300;SDS011;11819;51.394;12.340;2023-06-10T09:45:03;18.42;;;16.40;;
23300;SDS011;11819;51.394;12.340;2023-06-10T09:47:30;18.17;;;16.15;;
23300;SDS011;11819;51.394;12.340;2023-06-10T09:49:55;17.60;;;15.80;;
23300;SDS011;11819;51.394;12.340;2023-06-10T09:52:25;19.27;;;16.77;;
23300;SDS011;11819;51.394;12.340;2023-06-10T09:54:52;18.15;;;16.25;;
23300;SDS011;11819;51.394;12.340;2023-06-10T09:57:21;19.90;;;16.85;;
23300;SDS011;11819;51.394;12.340;2023-06-10T09:59:47;17.58;;;15.70;;
23300;SDS011;11819;51.394;12.340;2023-06-10T10:02:13;17.90;;;16.00;;
23300;SDS011;11819;51.394;12.340;2023-06-10T10:04:40;18.65;;;15.48;;
23300;SDS011;11819;51.394;12.340;2023-06-10T10:07:05;18.00;;;16.30;;
23300;SDS011;11819;51.394;12.340;2023-06-10T10:09:32;17.40;;;15.50;;
23300;SDS011;11819;51.394;12.340;2023-06-10T10:11:58;19.23;;;17.17;;
23300;SDS011;11819;51.394;12.340;2023-06-10T10:14:27;18.15;;;16.42;;
23300;SDS011;11819;51.394;12.340;2023-06-10T10:16:55;18.83;;;16.90;;
23300;SDS011;11819;51.394;12.340;2023-06-10T10:19:25;18.92;;;15.90;;
23300;SDS011;11819;51.394;12.340;2023-06-10T10:21:56;18.92;;;16.80;;
23300;SDS011;11819;51.394;12.340;2023-06-10T10:24:33;19.92;;;18.02;;
23300;SDS011;11819;51.394;12.340;2023-06-10T10:27:02;18.40;;;16.65;;
23300;SDS011;11819;51.394;12.340;2023-06-10T10:29:39;18.15;;;16.25;;
23300;SDS011;11819;51.394;12.340;2023-06-10T10:32:08;17.75;;;15.95;;
23300;SDS011;11819;51.394;12.340;2023-06-10T10:34:37;18.35;;;16.55;;
23300;SDS011;11819;51.394;12.340;2023-06-10T10:37:14;18.55;;;16.73;;
23300;SDS011;11819;51.394;12.340;2023-06-10T10:39:40;19.58;;;17.63;;
23300;SDS011;11819;51.394;12.340;2023-06-10T10:42:06;18.77;;;17.05;;
23300;SDS011;11819;51.394;12.340;2023-06-10T10:44:35;18.52;;;16.55;;
23300;SDS011;11819;51.394;12.340;2023-06-10T10:47:03;17.75;;;15.98;;
23300;SDS011;11819;51.394;12.340;2023-06-10T10:49:30;17.95;;;15.98;;
23300;SDS011;11819;51.394;12.340;2023-06-10T10:51:58;18.63;;;16.83;;
23300;SDS011;11819;51.394;12.340;2023-06-10T10:54:29;17.60;;;15.82;;
23300;SDS011;11819;51.394;12.340;2023-06-10T10:57:15;18.42;;;16.73;;
23300;SDS011;11819;51.394;12.340;2023-06-10T11:05:13;19.15;;;17.33;;
23300;SDS011;11819;51.394;12.340;2023-06-10T11:07:40;19.08;;;17.27;;
23300;SDS011;11819;51.394;12.340;2023-06-10T11:10:16;19.20;;;17.35;;
23300;SDS011;11819;51.394;12.340;2023-06-10T11:15:22;18.85;;;17.05;;
23300;SDS011;11819;51.394;12.340;2023-06-10T11:20:55;19.30;;;17.58;;
23300;SDS011;11819;51.394;12.340;2023-06-10T11:31:18;19.75;;;18.05;;
23300;SDS011;11819;51.394;12.340;2023-06-10T11:33:46;19.48;;;17.50;;
23300;SDS011;11819;51.394;12.340;2023-06-10T11:36:14;18.63;;;16.77;;
23300;SDS011;11819;51.394;12.340;2023-06-10T11:38:42;18.05;;;16.17;;
23300;SDS011;11819;51.394;12.340;2023-06-10T11:41:10;18.63;;;16.73;;
23300;SDS011;11819;51.394;12.340;2023-06-10T11:43:40;16.90;;;15.05;;
23300;SDS011;11819;51.394;12.340;2023-06-10T11:46:13;17.80;;;16.08;;
23300;SDS011;11819;51.394;12.340;2023-06-10T11:48:39;18.33;;;16.25;;
23300;SDS011;11819;51.394;12.340;2023-06-10T11:51:14;26.73;;;16.90;;
23300;SDS011;11819;51.394;12.340;2023-06-10T11:53:39;18.33;;;16.42;;
23300;SDS011;11819;51.394;12.340;2023-06-10T11:56:05;20.17;;;16.30;;
23300;SDS011;11819;51.394;12.340;2023-06-10T11:58:30;19.30;;;17.40;;
23300;SDS011;11819;51.394;12.340;2023-06-10T12:00:56;19.30;;;16.60;;
23300;SDS011;11819;51.394;12.340;2023-06-10T12:03:23;18.13;;;16.52;;
23300;SDS011;11819;51.394;12.340;2023-06-10T12:05:56;18.17;;;16.40;;
23300;SDS011;11819;51.394;12.340;2023-06-10T12:08:25;20.08;;;15.68;;
23300;SDS011;11819;51.394;12.340;2023-06-10T12:10:52;17.25;;;15.52;;
23300;SDS011;11819;51.394;12.340;2023-06-10T12:13:18;16.98;;;15.38;;
23300;SDS011;11819;51.394;12.340;2023-06-10T12:15:45;15.25;;;13.85;;
23300;SDS011;11819;51.394;12.340;2023-06-10T12:18:17;16.23;;;14.57;;
23300;SDS011;11819;51.394;12.340;2023-06-10T12:20:44;16.58;;;14.88;;
23300;SDS011;11819;51.394;12.340;2023-06-10T12:23:10;16.30;;;14.70;;
23300;SDS011;11819;51.394;12.340;2023-06-10T12:25:37;15.25;;;13.80;;
23300;SDS011;11819;51.394;12.340;2023-06-10T12:28:03;17.17;;;14.55;;
23300;SDS011;11819;51.394;12.340;2023-06-10T12:30:30;14.43;;;13.23;;
23300;SDS011;11819;51.394;12.340;2023-06-10T12:32:57;16.15;;;14.48;;
23300;SDS011;11819;51.394;12.340;2023-06-10T12:35:24;22.50;;;12.68;;
23300;SDS011;11819;51.394;12.340;2023-06-10T12:37:54;82.15;;;15.73;;
23300;SDS011;11819;51.394;12.340;2023-06-10T12:40:28;23.83;;;12.57;;
23300;SDS011;11819;51.394;12.340;2023-06-10T12:43:05;13.65;;;11.00;;
23300;SDS011;11819;51.394;12.340;2023-06-10T12:45:32;21.15;;;12.48;;
23300;SDS011;11819;51.394;12.340;2023-06-10T12:50:54;19.73;;;14.00;;
23300;SDS011;11819;51.394;12.340;2023-06-10T12:53:21;21.77;;;14.05;;
23300;SDS011;11819;51.394;12.340;2023-06-10T12:55:53;18.75;;;14.05;;
23300;SDS011;11819;51.394;12.340;2023-06-10T12:58:19;13.73;;;12.32;;
23300;SDS011;11819;51.394;12.340;2023-06-10T13:00:45;15.40;;;13.48;;
23300;SDS011;11819;51.394;12.340;2023-06-10T13:03:13;16.95;;;13.48;;
23300;SDS011;11819;51.394;12.340;2023-06-10T13:05:39;15.43;;;13.77;;
23300;SDS011;11819;51.394;12.340;2023-06-10T13:08:05;14.52;;;13.02;;
23300;SDS011;11819;51.394;12.340;2023-06-10T13:10:32;14.68;;;13.10;;
23300;SDS011;11819;51.394;12.340;2023-06-10T13:12:59;27.13;;;14.35;;
23300;SDS011;11819;51.394;12.340;2023-06-10T13:15:26;15.30;;;12.52;;
23300;SDS011;11819;51.394;12.340;2023-06-10T13:17:52;14.38;;;12.88;;
23300;SDS011;11819;51.394;12.340;2023-06-10T13:20:17;13.82;;;12.52;;
23300;SDS011;11819;51.394;12.340;2023-06-10T13:22:44;17.77;;;13.32;;
23300;SDS011;11819;51.394;12.340;2023-06-10T13:25:10;14.23;;;12.85;;
23300;SDS011;11819;51.394;12.340;2023-06-10T13:27:36;15.88;;;13.60;;
23300;SDS011;11819;51.394;12.340;2023-06-10T13:30:04;17.10;;;13.25;;
23300;SDS011;11819;51.394;12.340;2023-06-10T13:32:34;13.80;;;12.18;;
23300;SDS011;11819;51.394;12.340;2023-06-10T13:35:00;13.02;;;11.60;;
23300;SDS011;11819;51.394;12.340;2023-06-10T13:37:26;13.02;;;11.70;;
23300;SDS011;11819;51.394;12.340;2023-06-10T13:39:52;14.32;;;12.32;;
23300;SDS011;11819;51.394;12.340;2023-06-10T13:42:18;11.90;;;10.75;;
23300;SDS011;11819;51.394;12.340;2023-06-10T13:44:44;12.25;;;11.05;;
23300;SDS011;11819;51.394;12.340;2023-06-10T13:47:10;11.95;;;9.77;;
23300;SDS011;11819;51.394;12.340;2023-06-10T13:49:36;12.15;;;10.88;;
23300;SDS011;11819;51.394;12.340;2023-06-10T13:52:02;13.65;;;11.02;;
23300;SDS011;11819;51.394;12.340;2023-06-10T13:54:28;10.68;;;9.68;;
23300;SDS011;11819;51.394;12.340;2023-06-10T13:56:55;10.70;;;9.60;;
23300;SDS011;11819;51.394;12.340;2023-06-10T13:59:20;10.60;;;9.60;;
23300;SDS011;11819;51.394;12.340;2023-06-10T14:01:46;9.93;;;8.93;;
23300;SDS011;11819;51.394;12.340;2023-06-10T14:04:12;10.45;;;9.35;;
23300;SDS011;11819;51.394;12.340;2023-06-10T14:06:38;9.80;;;8.80;;
23300;SDS011;11819;51.394;12.340;2023-06-10T14:09:04;10.18;;;8.68;;
23300;SDS011;11819;51.394;12.340;2023-06-10T14:11:30;9.48;;;8.48;;
23300;SDS011;11819;51.394;12.340;2023-06-10T14:13:56;10.73;;;7.78;;
23300;SDS011;11819;51.394;12.340;2023-06-10T14:16:22;9.13;;;8.13;;
23300;SDS011;11819;51.394;12.340;2023-06-10T14:18:49;8.88;;;7.97;;
23300;SDS011;11819;51.394;12.340;2023-06-10T14:21:16;8.25;;;7.28;;
23300;SDS011;11819;51.394;12.340;2023-06-10T14:23:42;7.90;;;7.10;;
23300;SDS011;11819;51.394;12.340;2023-06-10T14:26:11;8.73;;;7.50;;
23300;SDS011;11819;51.394;12.340;2023-06-10T14:28:37;7.78;;;6.97;;
23300;SDS011;11819;51.394;12.340;2023-06-10T14:31:03;8.52;;;7.18;;
23300;SDS011;11819;51.394;12.340;2023-06-10T14:33:29;8.07;;;7.10;;
23300;SDS011;11819;51.394;12.340;2023-06-10T14:35:56;10.80;;;9.80;;